Flight Track Log - Related Links

Times and Time Zones

All times are in EDT time to prevent confusion due to time zone crossing. See the BBA13 flight status page for this flight to view local times or setup timezone preferences in your user account.

Time Position Orientation Groundspeed Altitude Reporting Facility
EDT Latitude Longitude Course Direction KTS MPH feet Rate Location/Type
Wed 09:34:33 AM 43.7390 -79.4620 140° Southeast 142 163 900  Level FlightAware ADS-B
Wed 09:34:48 AM 43.7300 -79.4500 136° Southeast 174 200 1,300 1,313 Climbing FlightAware ADS-B
Wed 09:35:05 AM 43.7260 -79.4320 107° East 211 243 1,600 750 Climbing FlightAware ADS-B
Wed 09:35:12 AM 43.7310 -79.4170 65° Northeast 217 250 1,600 -375 Level FlightAware ADS-B
Wed 09:35:21 AM 43.7370 -79.4100 40° Northeast 228 262 1,500 -286 Descending FlightAware ADS-B
Wed 09:35:33 AM 43.7420 -79.4070 23° Northeast 229 264 1,500  Level FlightAware ADS-B
Wed 09:35:44 AM 43.7530 -79.4060 North 226 260 1,500  Level FlightAware ADS-B
Wed 09:35:53 AM 43.7580 -79.4090 337° Northwest 223 257 1,500  Level FlightAware ADS-B
Wed 09:35:57 AM 43.7620 -79.4110 340° North 220 253 1,500  Level FlightAware ADS-B
Wed 09:36:23 AM 43.7810 -79.4280 327° Northwest 220 253 1,500  Level FlightAware ADS-B
Wed 09:36:46 AM 43.7930 -79.4430 318° Northwest 220 253 1,500  Level FlightAware ADS-B
Wed 09:37:13 AM 43.8120 -79.4620 324° Northwest 220 253 1,500 1,217 Level FlightAware ADS-B
Wed 09:37:55 AM 43.8610 -79.5140 323° Northwest 271 312 2,900 1,254 Climbing FlightAware ADS-B
Wed 09:38:20 AM 43.8820 -79.5360 323° Northwest 271 312 2,900 3,800 Level FlightAware ADS-B
Wed 09:38:25 AM 43.8920 -79.5420 337° Northwest 286 329 4,800 9,750 Climbing FlightAware ADS-B
Wed 09:38:44 AM 43.9330 -79.5570 345° North 297 342 6,800 5,455 Climbing FlightAware ADS-B
Wed 09:38:58 AM 43.9520 -79.5640 345° North 297 342 7,800 3,882 Climbing FlightAware ADS-B
Wed 09:39:18 AM 43.9790 -79.5730 347° North 298 343 9,000 3,153 Climbing FlightAware ADS-B
Wed 09:39:57 AM 44.0310 -79.5770 357° North 312 359 10,900 1,263 Climbing FlightAware ADS-B
Wed 09:41:12 AM 44.1360 -79.5330 17° North 325 374 11,400 1,179 Climbing FlightAware ADS-B
Wed 09:41:54 AM 44.1990 -79.5060 17° North 326 375 13,200 2,531 Climbing FlightAware ADS-B
Wed 09:42:16 AM 44.2240 -79.4950 18° North 332 382 14,100 1,113 Climbing FlightAware ADS-B
Wed 09:43:31 AM 44.3270 -79.4410 21° North 291 335 15,000 474 Climbing FlightAware ADS-B
Wed 09:44:10 AM 44.3630 -79.4180 25° Northeast 275 316 15,000  Level FlightAware ADS-B
Wed 09:44:55 AM 44.4160 -79.3850 24° Northeast 275 316 15,000  Level FlightAware ADS-B
Wed 09:45:50 AM 44.4750 -79.3480 24° Northeast 274 315 15,000  Level FlightAware ADS-B
Wed 09:46:26 AM 44.5110 -79.3260 24° Northeast 274 315 15,000  Level FlightAware ADS-B
Wed 09:46:56 AM 44.5660 -79.2930 23° Northeast 276 318 15,000  Level FlightAware ADS-B
Wed 09:47:07 AM 44.5820 -79.2830 24° Northeast 275 316 15,000  Level FlightAware ADS-B
Wed 09:48:27 AM 44.6710 -79.2280 24° Northeast 265 305 15,000  Level FlightAware ADS-B
Wed 09:48:56 AM 44.7060 -79.2060 24° Northeast 267 307 15,000  Level FlightAware ADS-B
Wed 09:49:13 AM 44.7240 -79.1930 27° Northeast 268 308 15,000  Level FlightAware ADS-B
Wed 09:49:37 AM 44.7470 -79.1700 35° Northeast 268 308 15,000  Level FlightAware ADS-B
Wed 09:50:05 AM 44.7680 -79.1280 55° Northeast 269 310 15,000  Level FlightAware ADS-B
Wed 09:50:51 AM 44.8010 -79.0580 56° Northeast 274 315 15,000  Level FlightAware ADS-B
Wed 09:51:25 AM 44.8250 -79.0070 56° Northeast 278 320 15,000  Level FlightAware ADS-B
Wed 09:51:56 AM 44.8470 -78.9610 56° Northeast 280 322 15,000  Level FlightAware ADS-B
Wed 09:52:36 AM 44.8720 -78.9040 58° Northeast 240 276 15,000  Level FlightAware ADS-B
Wed 09:53:01 AM 44.8860 -78.8720 58° Northeast 231 266 15,000  Level FlightAware ADS-B
Wed 09:53:50 AM 44.9110 -78.8200 56° Northeast 231 266 15,000  Level FlightAware ADS-B
Wed 09:54:35 AM 44.9330 -78.7710 58° Northeast 231 266 15,000  Level FlightAware ADS-B
Wed 09:56:02 AM 44.9850 -78.8950 301° West 174 200 15,000  Level FlightAware ADS-B
Wed 09:56:35 AM 44.9950 -78.9280 293° West 161 185 15,000  Level FlightAware ADS-B
Wed 09:57:11 AM 45.0050 -78.9600 294° West 137 158 15,000  Level FlightAware ADS-B
Wed 09:57:51 AM 45.0160 -78.9940 295° West 164 189 15,000  Level FlightAware ADS-B
Wed 09:58:25 AM 45.0280 -79.0330 294° West 210 242 15,000  Level FlightAware ADS-B
Wed 09:58:39 AM 45.0330 -79.0500 293° West 212 244 15,000  Level FlightAware ADS-B
Wed 09:59:26 AM 45.0530 -79.1180 293° West 229 264 15,000  Level FlightAware ADS-B
Wed 10:00:10 AM 45.0720 -79.1840 292° West 268 308 15,000 100 Level FlightAware ADS-B
Wed 10:00:26 AM 45.0770 -79.2110 285° West 266 306 15,100  Climbing FlightAware ADS-B
Wed 10:00:50 AM 45.0660 -79.2510 249° West 292 336 15,000 -188 Descending FlightAware ADS-B
Wed 10:00:58 AM 45.0580 -79.2600 218° Southwest 309 356 15,000  Level FlightAware ADS-B
Wed 10:01:06 AM 45.0470 -79.2670 204° Southwest 329 379 15,000  Level FlightAware ADS-B
Wed 10:01:17 AM 45.0300 -79.2710 189° South 356 410 15,000  Level FlightAware ADS-B
Wed 10:01:57 AM 44.9640 -79.2480 166° South 419 482 15,000 86 Level FlightAware ADS-B
Wed 10:02:27 AM 44.9160 -79.2280 164° South 430 495 15,100 86 Climbing FlightAware ADS-B
Wed 10:03:07 AM 44.8430 -79.1900 160° South 373 429 15,100 -109 Level FlightAware ADS-B
Wed 10:03:22 AM 44.8310 -79.1620 121° Southeast 401 461 15,000  Descending FlightAware ADS-B
Wed 10:03:57 AM 44.8550 -79.0720 69° East 410 472 15,100 97 Climbing FlightAware ADS-B
Wed 10:04:24 AM 44.8780 -79.0170 59° Northeast 411 473 15,100 -90 Level FlightAware ADS-B
Wed 10:05:04 AM 44.9220 -78.9100 60° Northeast 412 474 15,000 -78 Descending FlightAware ADS-B
Wed 10:05:41 AM 44.9550 -78.8320 59° Northeast 410 472 15,000  Level FlightAware ADS-B
Wed 10:06:22 AM 44.9900 -78.7590 56° Northeast 328 377 15,000  Level FlightAware ADS-B
Wed 10:06:57 AM 45.0240 -78.7000 51° Northeast 317 365 15,000  Level FlightAware ADS-B
Wed 10:07:12 AM 45.0440 -78.6870 25° Northeast 308 354 15,000  Level FlightAware ADS-B
Wed 10:07:18 AM 45.0490 -78.6860 North 303 349 15,000  Level FlightAware ADS-B
Wed 10:07:52 AM 45.0900 -78.7160 333° Northwest 277 319 15,000  Level FlightAware ADS-B
Wed 10:08:02 AM 45.0930 -78.7320 285° West 270 311 15,000  Level FlightAware ADS-B
Wed 10:08:37 AM 45.0990 -78.7910 278° West 269 310 15,000  Level FlightAware ADS-B
Wed 10:09:13 AM 45.1030 -78.8510 275° West 273 314 15,000  Level FlightAware ADS-B
Wed 10:09:48 AM 45.1080 -78.9170 276° West 258 297 15,000  Level FlightAware ADS-B
Wed 10:10:21 AM 45.1140 -78.9750 278° West 229 264 15,000 194 Level FlightAware ADS-B
Wed 10:10:50 AM 45.1100 -79.0070 260° West 224 258 15,200 508 Climbing FlightAware ADS-B
Wed 10:11:20 AM 45.0880 -79.0370 224° Southwest 234 269 15,500 240 Climbing FlightAware ADS-B
Wed 10:12:05 AM 45.0490 -79.0940 226° Southwest 221 254 15,500  Level FlightAware ADS-B
Wed 10:12:39 AM 45.0260 -79.1260 225° Southwest 188 216 15,500 -370 Level FlightAware ADS-B
Wed 10:13:26 AM 44.9990 -79.1640 225° Southwest 172 198 15,000 -659 Descending FlightAware ADS-B
Wed 10:14:10 AM 44.9770 -79.1950 225° Southwest 168 193 14,500 395 Descending FlightAware ADS-B
Wed 10:14:42 AM 44.9560 -79.2270 227° Southwest 193 222 15,500 900 Climbing FlightAware ADS-B
Wed 10:15:10 AM 44.9390 -79.2520 226° Southwest 199 229 15,400 97 Descending FlightAware ADS-B
Wed 10:15:44 AM 44.9180 -79.2800 223° Southwest 160 184 15,600 -261 Climbing FlightAware ADS-B
Wed 10:16:19 AM 44.9020 -79.3030 226° Southwest 147 169 15,100 -429 Descending FlightAware ADS-B
Wed 10:16:54 AM 44.8870 -79.3220 222° Southwest 106 122 15,100 -1,108 Level FlightAware ADS-B
Wed 10:17:24 AM 44.8700 -79.3450 224° Southwest 217 250 13,900 -1,650 Descending FlightAware ADS-B
Wed 10:17:34 AM 44.8610 -79.3490 197° South 224 258 14,000 1,200 Climbing FlightAware ADS-B
Wed 10:17:59 AM 44.8380 -79.3330 154° Southeast 224 258 14,600 1,650 Climbing FlightAware ADS-B
Wed 10:18:14 AM 44.8320 -79.3130 113° Southeast 230 265 15,100 1,350 Climbing FlightAware ADS-B
Wed 10:18:39 AM 44.8390 -79.2770 75° East 222 255 15,500 218 Climbing FlightAware ADS-B
Wed 10:19:09 AM 44.8490 -79.2400 69° East 200 230 15,300 -462 Descending FlightAware ADS-B
Wed 10:19:44 AM 44.8620 -79.1980 66° East 178 205 15,000 -1,200 Descending FlightAware ADS-B
Wed 10:20:19 AM 44.8740 -79.1580 67° East 253 291 13,900 514 Descending FlightAware ADS-B
Wed 10:20:54 AM 44.8880 -79.1120 67° East 217 250 15,600 1,371 Climbing FlightAware ADS-B
Wed 10:21:29 AM 44.9010 -79.0670 68° East 209 241 15,500 -343 Descending FlightAware ADS-B
Wed 10:22:04 AM 44.9130 -79.0250 68° East 196 226 15,200 -429 Descending FlightAware ADS-B
Wed 10:22:39 AM 44.9230 -78.9860 70° East 154 177 15,000 -257 Descending FlightAware ADS-B
Wed 10:23:14 AM 44.9360 -78.9460 65° Northeast 225 259 14,900 375 Descending FlightAware ADS-B
Wed 10:23:59 AM 44.9580 -78.8820 64° Northeast 212 244 15,500 225 Climbing FlightAware ADS-B
Wed 10:24:34 AM 44.9720 -78.8420 64° Northeast 188 216 15,200 -514 Descending FlightAware ADS-B
Wed 10:25:09 AM 44.9840 -78.8050 65° Northeast 157 181 14,900 -686 Descending FlightAware ADS-B
Wed 10:25:44 AM 44.9990 -78.7630 63° Northeast 216 249 14,400 560 Descending FlightAware ADS-B
Wed 10:26:24 AM 45.0140 -78.7180 65° Northeast 191 220 15,600 480 Climbing FlightAware ADS-B
Wed 10:26:59 AM 45.0270 -78.6790 65° Northeast 191 220 15,000 -771 Descending FlightAware ADS-B
Wed 10:27:34 AM 45.0380 -78.6440 66° East 148 170 14,700 -257 Descending FlightAware ADS-B
Wed 10:28:09 AM 45.0520 -78.6010 65° Northeast 218 251 14,700 1,114 Level FlightAware ADS-B
Wed 10:28:44 AM 45.0680 -78.5530 65° Northeast 238 274 16,000 1,068 Climbing FlightAware ADS-B
Wed 10:29:22 AM 45.0840 -78.5080 63° Northeast 219 252 16,000  Level FlightAware ADS-B
Wed 10:29:54 AM 45.1060 -78.4710 50° Northeast 233 268 16,000  Level FlightAware ADS-B
Wed 10:30:04 AM 45.1180 -78.4680 10° North 250 288 16,000  Level FlightAware ADS-B
Wed 10:30:24 AM 45.1430 -78.4720 354° North 277 319 16,000  Level FlightAware ADS-B
Wed 10:31:04 AM 45.1930 -78.4830 351° North 280 322 16,000  Level FlightAware ADS-B
Wed 10:31:39 AM 45.2370 -78.4920 352° North 282 325 16,000  Level FlightAware ADS-B
Wed 10:32:04 AM 45.2710 -78.5000 351° North 282 325 16,000  Level FlightAware ADS-B
Wed 10:32:44 AM 45.3200 -78.5110 351° North 284 327 16,000  Level FlightAware ADS-B
Wed 10:33:14 AM 45.3620 -78.5200 351° North 282 325 16,000  Level FlightAware ADS-B
Wed 10:33:54 AM 45.4130 -78.5310 351° North 283 326 16,000  Level FlightAware ADS-B
Wed 10:34:24 AM 45.4520 -78.5400 351° North 286 329 16,000  Level FlightAware ADS-B
Wed 10:34:44 AM 45.4800 -78.5440 354° North 292 336 16,000  Level FlightAware ADS-B
Wed 10:35:09 AM 45.5110 -78.5390 North 294 338 16,000  Level FlightAware ADS-B
Wed 10:35:44 AM 45.5580 -78.5300 North 291 335 16,000  Level FlightAware ADS-B
Wed 10:36:19 AM 45.6030 -78.5220 North 290 334 16,000  Level FlightAware ADS-B
Wed 10:37:00 AM 45.6670 -78.5090 North 292 336 16,000  Level FlightAware ADS-B
Wed 10:37:36 AM 45.7150 -78.5000 North 291 335 16,000  Level FlightAware ADS-B
Wed 10:38:12 AM 45.7630 -78.4900 North 295 339 16,000  Level FlightAware ADS-B
Wed 10:38:44 AM 45.8060 -78.4820 North 294 338 16,000  Level FlightAware ADS-B
Wed 10:39:25 AM 45.8610 -78.4710 North 300 345 16,000  Level FlightAware ADS-B
Wed 10:39:57 AM 45.9050 -78.4630 North 296 341 16,000  Level FlightAware ADS-B
Wed 10:40:18 AM 45.9340 -78.4580 North 287 330 16,000  Level FlightAware ADS-B
Wed 10:41:01 AM 45.9900 -78.4480 North 271 312 16,000  Level FlightAware ADS-B
Wed 10:41:37 AM 46.0370 -78.4390 North 328 377 16,000  Level FlightAware ADS-B
Wed 10:42:09 AM 46.0900 -78.4310 North 384 442 16,000 783 Level FlightAware ADS-B
Wed 10:42:46 AM 46.1580 -78.4200 North 412 474 16,900 1,826 Climbing FlightAware ADS-B
Wed 10:43:18 AM 46.2200 -78.4100 North 424 488 18,100 2,091 Climbing FlightAware ADS-B
Wed 10:43:52 AM 46.2650 -78.4030 North 423 487 19,200 1,556 Climbing FlightAware ADS-B
Wed 10:44:39 AM 46.3480 -78.3890 North 423 487 20,200 2,333 Climbing FlightAware ADS-B
Wed 10:45:04 AM 46.4030 -78.3790 North 441 507 22,000 3,100 Climbing FlightAware ADS-B
Wed 10:45:39 AM 46.4750 -78.3440 19° North 466 536 23,300 2,125 Climbing FlightAware ADS-B
Wed 10:45:52 AM 46.4920 -78.3170 48° Northeast 473 544 23,700 2,600 Climbing FlightAware ADS-B
Wed 10:46:39 AM 46.5080 -78.1710 81° East 464 534 25,900 3,412 Climbing FlightAware ADS-B
Wed 10:46:43 AM 46.4920 -78.1300 120° Southeast 458 527 26,600 3,600 Climbing FlightAware ADS-B
Wed 10:46:59 AM 46.4660 -78.0970 139° Southeast 455 524 27,100 2,000 Climbing FlightAware ADS-B
Wed 10:47:19 AM 46.4270 -78.0770 161° South 451 519 27,800 1,787 Climbing FlightAware ADS-B
Wed 10:47:46 AM 46.3730 -78.0880 188° South 449 517 28,500 1,969 Climbing FlightAware ADS-B
Wed 10:48:23 AM 46.3010 -78.1320 203° Southwest 449 517 29,900 2,087 Climbing FlightAware ADS-B
Wed 10:48:55 AM 46.2400 -78.1680 202° Southwest 453 521 30,900 857 Climbing FlightAware ADS-B
Wed 10:49:40 AM 46.1530 -78.2170 201° Southwest 447 514 31,000 77 Climbing FlightAware ADS-B
Wed 10:50:13 AM 46.0880 -78.2550 202° Southwest 448 516 31,000  Level FlightAware ADS-B
Wed 10:50:39 AM 46.0380 -78.2830 201° Southwest 449 517 31,000  Level FlightAware ADS-B
Wed 10:51:27 AM 45.9700 -78.3200 201° Southwest 464 534 31,000  Level FlightAware ADS-B
Wed 10:52:12 AM 45.8940 -78.3660 203° Southwest 468 539 31,000  Level FlightAware ADS-B
Wed 10:52:25 AM 45.8700 -78.3920 217° Southwest 461 531 31,000  Level FlightAware ADS-B
Wed 10:52:56 AM 45.8250 -78.4710 231° Southwest 463 533 31,000  Level FlightAware ADS-B
Wed 10:53:33 AM 45.7720 -78.5670 232° Southwest 462 532 31,000  Level FlightAware ADS-B
Wed 10:53:51 AM 45.7190 -78.6300 220° Southwest 471 542 31,000  Level FlightAware ADS-B
Wed 10:54:27 AM 45.6510 -78.6890 211° Southwest 471 542 31,000  Level FlightAware ADS-B
Wed 10:55:01 AM 45.5890 -78.7420 211° Southwest 469 540 31,000  Level FlightAware ADS-B
Wed 10:55:38 AM 45.5210 -78.8010 211° Southwest 470 541 31,000  Level FlightAware ADS-B
Wed 10:56:05 AM 45.4690 -78.8460 211° Southwest 472 543 31,000  Level FlightAware ADS-B
Wed 10:56:45 AM 45.3950 -78.9080 210° Southwest 448 516 31,000  Level FlightAware ADS-B
Wed 10:57:21 AM 45.3340 -78.9570 209° Southwest 414 476 31,000  Level FlightAware ADS-B
Wed 10:57:57 AM 45.2740 -79.0070 210° Southwest 405 466 31,000  Level FlightAware ADS-B
Wed 10:58:30 AM 45.2230 -79.0490 210° Southwest 398 458 31,000  Level FlightAware ADS-B
Wed 10:59:03 AM 45.1700 -79.0910 209° Southwest 394 453 31,000  Level FlightAware ADS-B
Wed 10:59:37 AM 45.1150 -79.1310 207° Southwest 389 448 31,000  Level FlightAware ADS-B
Wed 11:00:18 AM 45.0460 -79.1670 200° South 397 457 31,000  Level FlightAware ADS-B
Wed 11:00:51 AM 44.9850 -79.1760 186° South 398 458 31,000  Level FlightAware ADS-B
Wed 11:01:23 AM 44.9500 -79.1680 171° South 419 482 31,000  Level FlightAware ADS-B
Wed 11:01:40 AM 44.9210 -79.1410 147° Southeast 443 510 31,000  Level FlightAware ADS-B
Wed 11:01:55 AM 44.9010 -79.1030 127° Southeast 460 529 31,000  Level FlightAware ADS-B
Wed 11:02:08 AM 44.8930 -79.0690 108° East 468 539 31,000  Level FlightAware ADS-B
Wed 11:02:48 AM 44.9110 -78.9510 78° East 464 534 31,000  Level FlightAware ADS-B
Wed 11:03:25 AM 44.9580 -78.8780 48° Northeast 459 528 31,000  Level FlightAware ADS-B
Wed 11:04:04 AM 45.0130 -78.7990 45° Northeast 458 527 31,000  Level FlightAware ADS-B
Wed 11:04:35 AM 45.0940 -78.7120 37° Northeast 457 526 31,000  Level FlightAware ADS-B
Wed 11:05:11 AM 45.1550 -78.6540 34° Northeast 441 507 31,000  Level FlightAware ADS-B
Wed 11:05:50 AM 45.2250 -78.6030 27° Northeast 440 506 31,000  Level FlightAware ADS-B
Wed 11:06:34 AM 45.2890 -78.5560 27° Northeast 439 505 31,000  Level FlightAware ADS-B
Wed 11:07:10 AM 45.3470 -78.5130 28° Northeast 437 503 31,000  Level FlightAware ADS-B
Wed 11:07:26 AM 45.3770 -78.4980 19° North 423 487 31,000  Level FlightAware ADS-B
Wed 11:07:50 AM 45.4230 -78.4850 11° North 427 491 31,000  Level FlightAware ADS-B
Wed 11:08:29 AM 45.4970 -78.4470 20° North 429 494 31,000  Level FlightAware ADS-B
Wed 11:09:07 AM 45.5900 -78.3980 20° North 428 493 31,000  Level FlightAware ADS-B
Wed 11:09:40 AM 45.6500 -78.3670 20° North 427 491 31,000 -343 Level FlightAware ADS-B
Wed 11:10:17 AM 45.7210 -78.3310 19° North 431 496 30,600 -686 Descending FlightAware ADS-B
Wed 11:10:50 AM 45.7820 -78.3020 18° North 436 502 30,200 -783 Descending FlightAware ADS-B
Wed 11:11:26 AM 45.8530 -78.2690 18° North 443 510 29,700 -575 Descending FlightAware ADS-B
Wed 11:12:03 AM 45.9250 -78.2370 17° North 444 511 29,500 -171 Descending FlightAware ADS-B
Wed 11:12:36 AM 45.9910 -78.2060 18° North 441 507 29,500 86 Level FlightAware ADS-B
Wed 11:13:13 AM 46.0580 -78.1750 18° North 438 504 29,600 162 Climbing FlightAware ADS-B
Wed 11:13:50 AM 46.1330 -78.1400 18° North 434 499 29,700 174 Climbing FlightAware ADS-B
Wed 11:14:22 AM 46.1930 -78.1120 18° North 431 496 29,800 174 Climbing FlightAware ADS-B
Wed 11:14:59 AM 46.2630 -78.0800 18° North 430 495 29,900 82 Climbing FlightAware ADS-B
Wed 11:15:35 AM 46.3310 -78.0490 17° North 430 495 29,900  Level FlightAware ADS-B
Wed 11:16:08 AM 46.3940 -78.0210 17° North 431 496 29,900  Level FlightAware ADS-B
Wed 11:16:30 AM 46.4370 -78.0130 North 415 478 29,900  Level FlightAware ADS-B
Wed 11:17:05 AM 46.4920 -78.0330 346° North 409 471 29,900  Level FlightAware ADS-B
Wed 11:17:11 AM 46.4950 -78.0700 277° West 376 433 29,900  Level FlightAware ADS-B
Wed 11:17:24 AM 46.5020 -78.1040 287° West 365 420 29,900  Level FlightAware ADS-B
Wed 11:17:46 AM 46.4950 -78.1540 259° West 356 410 29,900  Level FlightAware ADS-B
Wed 11:17:58 AM 46.4830 -78.1780 234° Southwest 355 409 29,900  Level FlightAware ADS-B
Wed 11:18:35 AM 46.4380 -78.2300 219° Southwest 355 409 29,900  Level FlightAware ADS-B
Wed 11:19:12 AM 46.3860 -78.2840 216° Southwest 352 405 29,900  Level FlightAware ADS-B
Wed 11:19:40 AM 46.3500 -78.3230 217° Southwest 352 405 29,900 88 Level FlightAware ADS-B
Wed 11:20:20 AM 46.2980 -78.3770 216° Southwest 353 406 30,000 164 Climbing FlightAware ADS-B
Wed 11:20:53 AM 46.2530 -78.4230 215° Southwest 353 406 30,100 169 Climbing FlightAware ADS-B
Wed 11:21:31 AM 46.2020 -78.4750 215° Southwest 353 406 30,200 167 Climbing FlightAware ADS-B
Wed 11:22:05 AM 46.1580 -78.5200 215° Southwest 352 405 30,300 174 Climbing FlightAware ADS-B
Wed 11:22:40 AM 46.1120 -78.5670 215° Southwest 351 404 30,400 179 Climbing FlightAware ADS-B
Wed 11:23:12 AM 46.0690 -78.6110 215° Southwest 350 403 30,500 254 Climbing FlightAware ADS-B
Wed 11:23:51 AM 46.0170 -78.6630 215° Southwest 352 405 30,700 254 Climbing FlightAware ADS-B
Wed 11:24:23 AM 45.9690 -78.6920 203° Southwest 357 411 30,800 109 Climbing FlightAware ADS-B
Wed 11:24:46 AM 45.9320 -78.7070 196° South 365 420 30,800 203 Level FlightAware ADS-B
Wed 11:25:22 AM 45.8710 -78.7110 183° South 355 409 31,000 176 Climbing FlightAware ADS-B
Wed 11:25:54 AM 45.8200 -78.7270 192° South 361 415 31,000  Level FlightAware ADS-B
Wed 11:26:30 AM 45.7600 -78.7410 189° South 361 415 31,000  Level FlightAware ADS-B
Wed 11:27:06 AM 45.7000 -78.7530 188° South 364 419 31,000  Level FlightAware ADS-B
Wed 11:27:43 AM 45.6410 -78.7760 195° South 357 411 31,000  Level FlightAware ADS-B
Wed 11:28:14 AM 45.5940 -78.8030 202° Southwest 357 411 31,000  Level FlightAware ADS-B
Wed 11:28:51 AM 45.5350 -78.8270 196° South 358 412 31,000  Level FlightAware ADS-B
Wed 11:29:25 AM 45.4800 -78.8520 198° South 361 415 31,000  Level FlightAware ADS-B
Wed 11:30:02 AM 45.4210 -78.8760 196° South 362 417 31,000  Level FlightAware ADS-B
Wed 11:30:43 AM 45.3550 -78.9040 197° South 363 418 31,000  Level FlightAware ADS-B
Wed 11:31:14 AM 45.3060 -78.9240 196° South 364 419 31,000  Level FlightAware ADS-B
Wed 11:31:52 AM 45.2440 -78.9490 196° South 366 421 31,000  Level FlightAware ADS-B
Wed 11:32:36 AM 45.1720 -78.9790 196° South 366 421 31,000  Level FlightAware ADS-B
Wed 11:33:07 AM 45.1210 -79.0010 197° South 366 421 31,000  Level FlightAware ADS-B
Wed 11:33:24 AM 45.0940 -79.0110 195° South 375 432 31,000  Level FlightAware ADS-B
Wed 11:33:47 AM 45.0530 -79.0010 170° South 404 465 31,000  Level FlightAware ADS-B
Wed 11:33:57 AM 45.0380 -78.9880 149° Southeast 417 480 31,000  Level FlightAware ADS-B
Wed 11:34:08 AM 45.0220 -78.9660 136° Southeast 429 494 31,000  Level FlightAware ADS-B
Wed 11:34:20 AM 45.0110 -78.9380 119° Southeast 438 504 31,000  Level FlightAware ADS-B
Wed 11:34:34 AM 45.0030 -78.8970 105° East 446 513 31,000  Level FlightAware ADS-B
Wed 11:35:03 AM 45.0120 -78.8240 80° East 449 517 31,000  Level FlightAware ADS-B
Wed 11:35:28 AM 45.0430 -78.7670 52° Northeast 443 510 31,000  Level FlightAware ADS-B
Wed 11:36:03 AM 45.0950 -78.6960 44° Northeast 444 511 31,000  Level FlightAware ADS-B
Wed 11:36:33 AM 45.1430 -78.6460 36° Northeast 433 498 31,000  Level FlightAware ADS-B
Wed 11:37:08 AM 45.2020 -78.6070 25° Northeast 431 496 31,000  Level FlightAware ADS-B
Wed 11:37:43 AM 45.2690 -78.5640 24° Northeast 430 495 31,000 -343 Level FlightAware ADS-B
Wed 11:38:18 AM 45.3310 -78.5250 24° Northeast 436 502 30,600 -686 Descending FlightAware ADS-B
Wed 11:38:53 AM 45.4000 -78.4830 23° Northeast 439 505 30,200 -686 Descending FlightAware ADS-B
Wed 11:39:28 AM 45.4580 -78.4480 23° Northeast 443 510 29,800 -600 Descending FlightAware ADS-B
Wed 11:40:03 AM 45.5390 -78.4020 22° Northeast 445 512 29,500 -257 Descending FlightAware ADS-B
Wed 11:40:38 AM 45.6050 -78.3650 21° North 442 509 29,500 87 Level FlightAware ADS-B
Wed 11:41:12 AM 45.6700 -78.3280 22° Northeast 438 504 29,600 265 Climbing FlightAware ADS-B
Wed 11:41:46 AM 45.7330 -78.2920 22° Northeast 433 498 29,800 243 Climbing FlightAware ADS-B
Wed 11:42:26 AM 45.8100 -78.2490 21° North 432 497 29,900 83 Climbing FlightAware ADS-B
Wed 11:42:58 AM 45.8690 -78.2160 21° North 432 497 29,900  Level FlightAware ADS-B
Wed 11:43:36 AM 45.9390 -78.1770 21° North 432 497 29,900  Level FlightAware ADS-B
Wed 11:44:07 AM 45.9960 -78.1450 21° North 433 498 29,900  Level FlightAware ADS-B
Wed 11:44:43 AM 46.0630 -78.1070 21° North 432 497 29,900  Level FlightAware ADS-B
Wed 11:45:18 AM 46.1290 -78.0700 21° North 432 497 29,900  Level FlightAware ADS-B
Wed 11:45:54 AM 46.1970 -78.0320 21° North 427 491 29,900  Level FlightAware ADS-B
Wed 11:46:28 AM 46.2580 -78.0070 16° North 409 471 29,900  Level FlightAware ADS-B
Wed 11:47:04 AM 46.3270 -78.0050 North 403 464 29,900  Level FlightAware ADS-B
Wed 11:47:40 AM 46.3920 -78.0040 North 400 460 29,900  Level FlightAware ADS-B
Wed 11:48:06 AM 46.4400 -78.0050 359° North 394 453 29,900  Level FlightAware ADS-B
Wed 11:48:33 AM 46.4780 -78.0290 336° Northwest 371 427 29,900  Level FlightAware ADS-B
Wed 11:48:50 AM 46.4960 -78.0700 303° West 351 404 29,900  Level FlightAware ADS-B
Wed 11:49:03 AM 46.4990 -78.0970 279° West 343 395 29,900  Level FlightAware ADS-B
Wed 11:49:28 AM 46.4850 -78.1510 249° West 336 387 29,900  Level FlightAware ADS-B
Wed 11:49:42 AM 46.4700 -78.1700 221° Southwest 338 389 29,900  Level FlightAware ADS-B
Wed 11:50:19 AM 46.4200 -78.2180 214° Southwest 344 396 29,900  Level FlightAware ADS-B
Wed 11:50:52 AM 46.3740 -78.2600 212° Southwest 347 399 29,900  Level FlightAware ADS-B
Wed 11:51:29 AM 46.3250 -78.3070 214° Southwest 349 402 29,900  Level FlightAware ADS-B
Wed 11:52:03 AM 46.2800 -78.3500 213° Southwest 353 406 29,900  Level FlightAware ADS-B
Wed 11:52:40 AM 46.2290 -78.3980 213° Southwest 353 406 29,900  Level FlightAware ADS-B
Wed 11:53:17 AM 46.1780 -78.4460 213° Southwest 353 406 29,900  Level FlightAware ADS-B
Wed 11:53:48 AM 46.1360 -78.4860 213° Southwest 351 404 29,900  Level FlightAware ADS-B
Wed 11:54:27 AM 46.0830 -78.5360 213° Southwest 348 400 29,900  Level FlightAware ADS-B
Wed 11:54:58 AM 46.0410 -78.5760 213° Southwest 346 398 29,900  Level FlightAware ADS-B
Wed 11:55:35 AM 45.9920 -78.6210 213° Southwest 347 399 29,900  Level FlightAware ADS-B
Wed 11:56:07 AM 45.9490 -78.6620 214° Southwest 349 402 29,900 87 Level FlightAware ADS-B
Wed 11:56:44 AM 45.8980 -78.7100 213° Southwest 351 404 30,000 95 Climbing FlightAware ADS-B
Wed 11:57:10 AM 45.8620 -78.7420 212° Southwest 356 410 30,000  Level FlightAware ADS-B
Wed 11:57:27 AM 45.8360 -78.7530 196° South 364 419 30,000  Level FlightAware ADS-B
Wed 11:58:00 AM 45.7800 -78.7700 192° South 367 422 30,000  Level FlightAware ADS-B
Wed 11:58:37 AM 45.7190 -78.7870 191° South 369 425 30,000  Level FlightAware ADS-B
Wed 11:59:12 AM 45.6600 -78.8010 189° South 358 412 30,000 83 Level FlightAware ADS-B
Wed 11:59:49 AM 45.6020 -78.8150 190° South 347 399 30,100 87 Climbing FlightAware ADS-B
Wed 12:00:21 PM 45.5520 -78.8270 190° South 339 390 30,100  Level FlightAware ADS-B
Wed 12:00:58 PM 45.4930 -78.8420 190° South 355 409 30,100 358 Level FlightAware ADS-B
Wed 12:01:28 PM 45.4420 -78.8550 190° South 388 447 30,500 609 Climbing FlightAware ADS-B
Wed 12:02:07 PM 45.3720 -78.8730 190° South 426 490 30,800 649 Climbing FlightAware ADS-B
Wed 12:02:42 PM 45.3000 -78.8900 189° South 460 529 31,300 1,333 Climbing FlightAware ADS-B
Wed 12:03:10 PM 45.2420 -78.8680 165° South 494 568 32,200 1,909 Climbing FlightAware ADS-B
Wed 12:03:26 PM 45.2120 -78.8330 141° Southeast 518 596 32,700 1,946 Climbing FlightAware ADS-B
Wed 12:03:47 PM 45.1860 -78.7730 122° Southeast 533 613 33,400 2,438 Climbing FlightAware ADS-B
Wed 12:03:58 PM 45.1790 -78.7320 104° East 536 617 34,000 2,609 Climbing FlightAware ADS-B
Wed 12:04:33 PM 45.1920 -78.6160 81° East 535 616 35,400 2,105 Climbing FlightAware ADS-B
Wed 12:04:55 PM 45.2210 -78.5520 57° Northeast 525 604 36,000 632 Climbing FlightAware ADS-B
Wed 12:05:30 PM 45.2910 -78.4880 33° Northeast 502 578 36,000  Level FlightAware ADS-B
Wed 12:06:04 PM 45.3630 -78.4400 25° Northeast 503 579 36,000  Level FlightAware ADS-B
Wed 12:06:41 PM 45.4400 -78.3920 24° Northeast 506 582 36,000  Level FlightAware ADS-B
Wed 12:07:14 PM 45.5120 -78.3470 24° Northeast 511 588 36,000  Level FlightAware ADS-B
Wed 12:07:48 PM 45.5880 -78.3000 23° Northeast 513 590 36,000  Level FlightAware ADS-B
Wed 12:08:25 PM 45.6670 -78.2510 23° Northeast 514 592 36,000  Level FlightAware ADS-B
Wed 12:08:57 PM 45.7360 -78.2080 24° Northeast 516 594 36,000  Level FlightAware ADS-B
Wed 12:09:34 PM 45.8200 -78.1560 23° Northeast 516 594 36,000  Level FlightAware ADS-B
Wed 12:10:11 PM 45.8980 -78.1060 24° Northeast 514 592 36,000  Level FlightAware ADS-B
Wed 12:10:44 PM 45.9710 -78.0610 23° Northeast 515 593 36,000  Level FlightAware ADS-B
Wed 12:11:18 PM 46.0460 -78.0150 23° Northeast 515 593 36,000  Level FlightAware ADS-B
Wed 12:11:53 PM 46.1210 -77.9680 23° Northeast 514 592 36,000  Level FlightAware ADS-B
Wed 12:12:28 PM 46.1980 -77.9210 23° Northeast 513 590 36,000  Level FlightAware ADS-B
Wed 12:12:56 PM 46.2620 -77.9120 North 508 585 36,000  Level FlightAware ADS-B
Wed 12:13:32 PM 46.3460 -77.9360 349° North 504 580 36,000  Level FlightAware ADS-B
Wed 12:13:52 PM 46.3890 -77.9590 340° North 495 570 36,000 737 Level FlightAware ADS-B
Wed 12:14:29 PM 46.4510 -78.0350 320° Northwest 479 551 36,700 2,123 Climbing FlightAware ADS-B
Wed 12:14:57 PM 46.4930 -78.0980 314° West 446 513 38,300 3,907 Climbing FlightAware ADS-B
Wed 12:15:12 PM 46.5040 -78.1350 293° West 420 483 39,500 4,800 Climbing FlightAware ADS-B
Wed 12:15:22 PM 46.5060 -78.1650 276° West 410 472 40,300 2,516 Climbing FlightAware ADS-B
Wed 12:15:43 PM 46.4990 -78.2120 258° West 409 471 40,800 1,167 Climbing FlightAware ADS-B
Wed 12:15:58 PM 46.4850 -78.2450 238° Southwest 417 480 41,000 400 Climbing FlightAware ADS-B
Wed 12:16:13 PM 46.4600 -78.2730 218° Southwest 434 499 41,000  Level FlightAware ADS-B
Wed 12:16:43 PM 46.4050 -78.2970 197° South 456 525 41,000  Level FlightAware ADS-B
Wed 12:17:25 PM 46.3070 -78.3250 191° South 458 527 41,000  Level FlightAware ADS-B
Wed 12:17:57 PM 46.2410 -78.3430 191° South 454 522 41,000  Level FlightAware ADS-B
Wed 12:18:32 PM 46.1670 -78.3640 191° South 455 524 41,000  Level FlightAware ADS-B
Wed 12:19:16 PM 46.0770 -78.3880 190° South 450 518 41,000  Level FlightAware ADS-B
Wed 12:19:50 PM 46.0070 -78.4080 191° South 451 519 41,000  Level FlightAware ADS-B
Wed 12:20:25 PM 45.9370 -78.4280 191° South 453 521 41,000  Level FlightAware ADS-B
Wed 12:21:03 PM 45.8600 -78.4510 192° South 454 522 41,000  Level FlightAware ADS-B
Wed 12:21:15 PM 45.8350 -78.4600 194° South 445 512 41,000  Level FlightAware ADS-B
Wed 12:21:31 PM 45.8080 -78.4830 211° Southwest 420 483 41,000  Level FlightAware ADS-B
Wed 12:21:42 PM 45.7930 -78.5070 228° Southwest 404 465 41,000  Level FlightAware ADS-B
Wed 12:21:58 PM 45.7830 -78.5450 249° West 390 449 41,000  Level FlightAware ADS-B
Wed 12:22:19 PM 45.7850 -78.5960 273° West 383 441 41,000  Level FlightAware ADS-B
Wed 12:22:52 PM 45.8010 -78.6440 296° West 382 440 41,000  Level FlightAware ADS-B
Wed 12:23:22 PM 45.8010 -78.7200 270° West 397 457 41,000  Level FlightAware ADS-B
Wed 12:23:38 PM 45.7850 -78.7550 237° Southwest 410 472 41,000  Level FlightAware ADS-B
Wed 12:24:01 PM 45.7460 -78.7890 211° Southwest 449 517 41,000  Level FlightAware ADS-B
Wed 12:24:35 PM 45.6790 -78.8090 192° South 473 544 41,000  Level FlightAware ADS-B
Wed 12:25:07 PM 45.6040 -78.8290 191° South 480 552 41,000  Level FlightAware ADS-B
Wed 12:26:01 PM 45.4830 -78.8600 190° South 474 545 41,000  Level FlightAware ADS-B
Wed 12:26:37 PM 45.3850 -78.8860 191° South 477 549 41,000  Level FlightAware ADS-B
Wed 12:27:10 PM 45.3130 -78.9060 191° South 479 551 41,000  Level FlightAware ADS-B
Wed 12:27:47 PM 45.2320 -78.9290 191° South 480 552 41,000  Level FlightAware ADS-B
Wed 12:28:23 PM 45.1540 -78.9500 191° South 481 554 41,000  Level FlightAware ADS-B
Wed 12:28:53 PM 45.0890 -78.9710 193° South 484 557 41,000  Level FlightAware ADS-B
Wed 12:29:31 PM 45.0060 -79.0000 194° South 504 580 41,000 103 Level FlightAware ADS-B
Wed 12:29:51 PM 44.9570 -78.9960 177° South 533 613 41,100 667 Climbing FlightAware ADS-B
Wed 12:30:07 PM 44.9200 -78.9730 156° South 551 634 41,400 1,071 Climbing FlightAware ADS-B
Wed 12:30:19 PM 44.8950 -78.9470 144° Southeast 564 649 41,600 828 Climbing FlightAware ADS-B
Wed 12:30:36 PM 44.8680 -78.9020 130° Southeast 576 663 41,800 667 Climbing FlightAware ADS-B
Wed 12:30:55 PM 44.8470 -78.8340 114° Southeast 580 667 42,000 632 Climbing FlightAware ADS-B
Wed 12:31:33 PM 44.8530 -78.6980 86° East 555 639 42,400 720 Climbing FlightAware ADS-B
Wed 12:31:45 PM 44.8670 -78.6590 63° Northeast 540 621 42,600 750 Climbing FlightAware ADS-B
Wed 12:32:21 PM 44.9340 -78.5860 38° Northeast 494 568 43,000 896 Climbing FlightAware ADS-B
Wed 12:32:52 PM 45.0010 -78.5560 18° North 487 560 43,600 1,026 Climbing FlightAware ADS-B
Wed 12:33:37 PM 45.0990 -78.5150 16° North 484 557 44,300 987 Climbing FlightAware ADS-B
Wed 12:34:11 PM 45.1710 -78.4860 16° North 486 559 44,900 917 Climbing FlightAware ADS-B
Wed 12:34:49 PM 45.2540 -78.4510 17° North 488 562 45,400 845 Climbing FlightAware ADS-B
Wed 12:35:22 PM 45.3240 -78.4210 17° North 488 562 45,900 818 Climbing FlightAware ADS-B
Wed 12:35:55 PM 45.3970 -78.3890 17° North 487 560 46,300 632 Climbing FlightAware ADS-B
Wed 12:36:38 PM 45.4880 -78.3500 17° North 486 559 46,700 532 Climbing FlightAware ADS-B
Wed 12:37:14 PM 45.5650 -78.3170 17° North 487 560 47,000 257 Climbing FlightAware ADS-B
Wed 12:37:48 PM 45.6390 -78.2860 16° North 491 565 47,000  Level FlightAware ADS-B
Wed 12:38:24 PM 45.7170 -78.2530 16° North 492 566 47,000  Level FlightAware ADS-B
Wed 12:38:59 PM 45.7950 -78.2210 16° North 494 568 47,000  Level FlightAware ADS-B
Wed 12:39:33 PM 45.8700 -78.1900 16° North 496 571 47,000  Level FlightAware ADS-B
Wed 12:40:08 PM 45.9470 -78.1580 16° North 498 573 47,000  Level FlightAware ADS-B
Wed 12:40:45 PM 46.0290 -78.1250 16° North 495 570 47,000  Level FlightAware ADS-B
Wed 12:41:19 PM 46.1030 -78.0950 16° North 487 560 47,000  Level FlightAware ADS-B
Wed 12:41:53 PM 46.1770 -78.0670 15° North 484 557 47,000  Level FlightAware ADS-B
Wed 12:42:25 PM 46.2460 -78.0420 14° North 483 556 47,000  Level FlightAware ADS-B
Wed 12:43:05 PM 46.3290 -78.0470 358° North 434 499 47,000  Level FlightAware ADS-B
Wed 12:43:17 PM 46.3490 -78.0660 327° Northwest 425 489 47,000  Level FlightAware ADS-B
Wed 12:43:34 PM 46.3690 -78.1020 309° West 422 486 47,000  Level FlightAware ADS-B
Wed 12:43:46 PM 46.3770 -78.1340 290° West 422 486 47,000  Level FlightAware ADS-B
Wed 12:44:22 PM 46.3920 -78.2330 282° West 424 488 47,000  Level FlightAware ADS-B
Wed 12:44:58 PM 46.4060 -78.3330 282° West 427 491 47,000  Level FlightAware ADS-B
Wed 12:45:38 PM 46.4230 -78.4450 282° West 427 491 47,000  Level FlightAware ADS-B
Wed 12:46:15 PM 46.4390 -78.5490 283° West 427 491 47,000  Level FlightAware ADS-B
Wed 12:46:43 PM 46.4260 -78.6250 256° West 439 505 47,000  Level FlightAware ADS-B
Wed 12:46:54 PM 46.4120 -78.6520 233° Southwest 447 514 47,000  Level FlightAware ADS-B
Wed 12:47:11 PM 46.3830 -78.6810 215° Southwest 459 528 47,000  Level FlightAware ADS-B
Wed 12:47:23 PM 46.3590 -78.6920 198° South 465 535 47,000  Level FlightAware ADS-B
Wed 12:47:55 PM 46.2910 -78.7090 190° South 467 537 47,000  Level FlightAware ADS-B
Wed 12:48:29 PM 46.2180 -78.7250 189° South 469 540 47,000  Level FlightAware ADS-B
Wed 12:49:08 PM 46.1350 -78.7440 189° South 472 543 47,000  Level FlightAware ADS-B
Wed 12:49:42 PM 46.0610 -78.7620 190° South 474 545 47,000  Level FlightAware ADS-B
Wed 12:50:14 PM 45.9900 -78.7790 189° South 477 549 47,000  Level FlightAware ADS-B
Wed 12:50:52 PM 45.9070 -78.7980 189° South 474 545 47,000  Level FlightAware ADS-B
Wed 12:51:28 PM 45.8320 -78.8150 189° South 472 543 47,000  Level FlightAware ADS-B
Wed 12:51:58 PM 45.7650 -78.8300 189° South 475 547 47,000  Level FlightAware ADS-B
Wed 12:52:33 PM 45.6910 -78.8470 189° South 476 548 47,000  Level FlightAware ADS-B
Wed 12:53:03 PM 45.6260 -78.8620 189° South 478 550 47,000  Level FlightAware ADS-B
Wed 12:53:41 PM 45.5430 -78.8820 190° South 479 551 47,000  Level FlightAware ADS-B
Wed 12:54:13 PM 45.4730 -78.8990 190° South 481 554 47,000 -87 Level FlightAware ADS-B
Wed 12:54:50 PM 45.3920 -78.9190 190° South 481 554 46,900 -1,233 Descending FlightAware ADS-B
Wed 12:55:26 PM 45.3100 -78.9400 190° South 502 578 45,500 -1,479 Descending FlightAware ADS-B
Wed 12:56:03 PM 45.2300 -78.9590 189° South 477 549 45,100 -3,043 Descending FlightAware ADS-B
Wed 12:56:35 PM 45.1590 -78.9730 188° South 475 547 42,000 -5,284 Descending FlightAware ADS-B
Wed 12:57:10 PM 45.0820 -78.9860 187° South 463 533 39,200 -4,731 Descending FlightAware ADS-B
Wed 12:57:27 PM 45.0500 -79.0010 198° South 438 504 37,900 -3,931 Descending FlightAware ADS-B
Wed 12:57:39 PM 45.0310 -79.0210 217° Southwest 415 478 37,300 -1,080 Descending FlightAware ADS-B
Wed 12:58:17 PM 44.9840 -79.0940 228° Southwest 400 460 37,000 -310 Descending FlightAware ADS-B
Wed 12:58:37 PM 44.9630 -79.1350 234° Southwest 408 470 37,000  Level FlightAware ADS-B
Wed 12:58:54 PM 44.9560 -79.1830 258° West 414 476 37,000  Level FlightAware ADS-B
Wed 12:59:18 PM 44.9690 -79.2440 287° West 417 480 37,000  Level FlightAware ADS-B
Wed 12:59:33 PM 44.9870 -79.2730 311° West 425 489 37,000 -643 Level FlightAware ADS-B
Wed 12:59:46 PM 45.0110 -79.2940 328° Northwest 439 505 36,700 -2,625 Descending FlightAware ADS-B
Wed 01:00:05 PM 45.0470 -79.3050 348° North 463 533 35,600 -4,744 Descending FlightAware ADS-B
Wed 01:00:29 PM 45.1000 -79.2910 11° North 507 583 33,300 -4,691 Descending FlightAware ADS-B
Wed 01:01:00 PM 45.1650 -79.2320 33° Northeast 526 605 31,300 -1,944 Descending FlightAware ADS-B
Wed 01:01:40 PM 45.2470 -79.1540 34° Northeast 559 643 31,000 -247 Descending FlightAware ADS-B
Wed 01:02:13 PM 45.3190 -79.0890 32° Northeast 562 647 31,000  Level FlightAware ADS-B
Wed 01:02:50 PM 45.4010 -79.0150 32° Northeast 565 650 31,000  Level FlightAware ADS-B
Wed 01:03:22 PM 45.4710 -78.9520 32° Northeast 540 621 31,000  Level FlightAware ADS-B
Wed 01:03:47 PM 45.5100 -78.9250 26° Northeast 499 574 31,000 -125 Level FlightAware ADS-B
Wed 01:04:10 PM 45.5490 -78.9150 10° North 468 539 30,900 -2,280 Descending FlightAware ADS-B
Wed 01:04:37 PM 45.6050 -78.9350 346° North 447 514 29,100 -4,714 Descending FlightAware ADS-B
Wed 01:04:52 PM 45.6280 -78.9600 323° Northwest 446 513 27,600 -5,760 Descending FlightAware ADS-B
Wed 01:05:02 PM 45.6400 -78.9840 306° West 444 511 26,700 -4,800 Descending FlightAware ADS-B
Wed 01:05:17 PM 45.6500 -79.0220 291° West 434 499 25,600 -4,174 Descending FlightAware ADS-B
Wed 01:05:25 PM 45.6510 -79.0450 274° West 428 493 25,100 -2,286 Descending FlightAware ADS-B
Wed 01:05:59 PM 45.6270 -79.1280 248° West 403 464 24,000 -1,269 Descending FlightAware ADS-B
Wed 01:06:17 PM 45.5980 -79.1510 209° Southwest 378 435 24,000  Level FlightAware ADS-B
Wed 01:06:47 PM 45.5360 -79.1650 189° South 347 399 24,000  Level FlightAware ADS-B
Wed 01:07:28 PM 45.4640 -79.1780 187° South 349 402 24,000  Level FlightAware ADS-B
Wed 01:08:04 PM 45.4060 -79.1880 187° South 345 397 24,000  Level FlightAware ADS-B
Wed 01:08:38 PM 45.3530 -79.1940 185° South 345 397 24,000  Level FlightAware ADS-B
Wed 01:09:18 PM 45.2920 -79.1870 175° South 351 404 24,000  Level FlightAware ADS-B
Wed 01:09:53 PM 45.2320 -79.1800 175° South 398 458 24,000 -86 Level FlightAware ADS-B
Wed 01:10:28 PM 45.1690 -79.1710 174° South 387 445 23,900 -1,629 Descending FlightAware ADS-B
Wed 01:11:03 PM 45.1080 -79.1630 175° South 386 444 22,100 -3,343 Descending FlightAware ADS-B
Wed 01:11:38 PM 45.0440 -79.1550 175° South 394 453 20,000 -2,914 Descending FlightAware ADS-B
Wed 01:12:13 PM 44.9820 -79.1470 175° South 381 438 18,700 -2,057 Descending FlightAware ADS-B
Wed 01:12:48 PM 44.9210 -79.1390 175° South 362 417 17,600 -1,808 Descending FlightAware ADS-B
Wed 01:13:26 PM 44.8630 -79.1320 175° South 345 397 16,500 -1,760 Descending FlightAware ADS-B
Wed 01:14:03 PM 44.8020 -79.1240 175° South 330 380 15,400 -1,750 Descending FlightAware ADS-B
Wed 01:14:38 PM 44.7490 -79.1180 175° South 318 366 14,400 -1,680 Descending FlightAware ADS-B
Wed 01:15:18 PM 44.6920 -79.1100 174° South 306 352 13,300 -1,629 Descending FlightAware ADS-B
Wed 01:15:48 PM 44.6490 -79.1050 175° South 298 343 12,500 -1,524 Descending FlightAware ADS-B
Wed 01:16:21 PM 44.6060 -79.0990 174° South 292 336 11,700 -1,541 Descending FlightAware ADS-B
Wed 01:17:02 PM 44.5500 -79.0920 175° South 288 331 10,600 -1,543 Descending FlightAware ADS-B
Wed 01:17:31 PM 44.5100 -79.0870 175° South 285 328 9,900 -1,429 Descending FlightAware ADS-B
Wed 01:18:26 PM 44.4420 -79.0790 175° South 276 318 8,600 -1,457 Descending FlightAware ADS-B
Wed 01:18:41 PM 44.4190 -79.0760 175° South 277 319 8,200 -1,543 Descending FlightAware ADS-B
Wed 01:19:01 PM 44.3940 -79.0730 175° South 274 315 7,700 -1,350 Descending FlightAware ADS-B
Wed 01:19:21 PM 44.3710 -79.0700 175° South 268 308 7,300 -1,440 Descending FlightAware ADS-B
Wed 01:19:51 PM 44.3320 -79.0650 175° South 259 298 6,500 -1,467 Descending FlightAware ADS-B
Wed 01:20:06 PM 44.3150 -79.0630 175° South 256 295 6,200 -1,167 Descending FlightAware ADS-B
Wed 01:20:27 PM 44.2940 -79.0600 174° South 245 282 5,800 -1,200 Descending FlightAware ADS-B
Wed 01:20:46 PM 44.2720 -79.0570 174° South 222 255 5,400 -968 Descending FlightAware ADS-B
Wed 01:20:58 PM 44.2610 -79.0580 184° South 207 238 5,300 -600 Descending FlightAware ADS-B
Wed 01:21:06 PM 44.2530 -79.0630 204° Southwest 197 227 5,200 -667 Descending FlightAware ADS-B
Wed 01:21:16 PM 44.2460 -79.0690 212° Southwest 193 222 5,100 -800 Descending FlightAware ADS-B
Wed 01:21:21 PM 44.2430 -79.0730 224° Southwest 188 216 5,000 -400 Descending FlightAware ADS-B
Wed 01:21:31 PM 44.2390 -79.0810 235° Southwest 183 211 5,000 -1,000 Level FlightAware ADS-B
Wed 01:21:51 PM 44.2300 -79.1030 240° Southwest 167 192 4,500 -1,350 Descending FlightAware ADS-B
Wed 01:22:11 PM 44.2230 -79.1210 242° Southwest 162 186 4,100 -800 Descending FlightAware ADS-B
Wed 01:22:21 PM 44.2190 -79.1300 238° Southwest 162 186 4,100 -171 Level FlightAware ADS-B
Wed 01:22:46 PM 44.2110 -79.1520 243° Southwest 161 185 4,000 -133 Descending FlightAware ADS-B
Wed 01:23:06 PM 44.2030 -79.1710 240° Southwest 162 186 4,000  Level FlightAware ADS-B
Wed 01:23:31 PM 44.1940 -79.1950 242° Southwest 161 185 4,000  Level FlightAware ADS-B
Wed 01:23:51 PM 44.1860 -79.2130 238° Southwest 161 185 4,000  Level FlightAware ADS-B
Wed 01:24:11 PM 44.1800 -79.2290 242° Southwest 165 190 4,000  Level FlightAware ADS-B
Wed 01:24:31 PM 44.1720 -79.2490 241° Southwest 165 190 4,000 -150 Level FlightAware ADS-B
Wed 01:24:51 PM 44.1640 -79.2690 241° Southwest 168 193 3,900 -450 Descending FlightAware ADS-B
Wed 01:25:11 PM 44.1570 -79.2860 240° Southwest 164 189 3,700 -750 Descending FlightAware ADS-B
Wed 01:25:31 PM 44.1500 -79.3030 240° Southwest 157 181 3,400 -766 Descending FlightAware ADS-B
Wed 01:25:58 PM 44.1420 -79.3220 240° Southwest 137 158 3,100 -400 Descending FlightAware ADS-B
Wed 01:26:16 PM 44.1360 -79.3380 242° Southwest 129 148 3,100 -140 Level FlightAware ADS-B
Wed 01:26:41 PM 44.1290 -79.3560 242° Southwest 125 144 3,000  Descending FlightAware ADS-B
Wed 01:27:03 PM 44.1220 -79.3720 239° Southwest 141 162 3,100  Climbing FlightAware ADS-B
Wed 01:27:23 PM 44.1160 -79.3870 241° Southwest 141 162 3,000 -150 Descending FlightAware ADS-B
Wed 01:27:43 PM 44.1090 -79.4040 240° Southwest 143 165 3,000  Level FlightAware ADS-B
Wed 01:27:59 PM 44.1040 -79.4170 242° Southwest 144 166 3,000  Level FlightAware ADS-B
Wed 01:28:28 PM 44.0950 -79.4400 241° Southwest 141 162 3,000 -98 Level FlightAware ADS-B
Wed 01:29:00 PM 44.0820 -79.4600 228° Southwest 134 154 2,900 -400 Descending FlightAware ADS-B
Wed 01:29:13 PM 44.0740 -79.4660 208° Southwest 136 157 2,700 -1,091 Descending FlightAware ADS-B
Wed 01:29:33 PM 44.0630 -79.4750 210° Southwest 141 162 2,300 -900 Descending FlightAware ADS-B
Wed 01:29:53 PM 44.0510 -79.4840 208° Southwest 143 165 2,100 -450 Descending FlightAware ADS-B
Wed 01:30:13 PM 44.0390 -79.4930 208° Southwest 144 166 2,000 -150 Descending FlightAware ADS-B
Wed 01:30:33 PM 44.0280 -79.5010 208° Southwest 147 169 2,000  Level FlightAware ADS-B
Wed 01:30:48 PM 44.0180 -79.5090 210° Southwest 149 171 2,000  Level FlightAware ADS-B
Wed 01:31:08 PM 44.0070 -79.5170 208° Southwest 148 170 2,000  Level FlightAware ADS-B
Wed 01:31:23 PM 43.9990 -79.5240 212° Southwest 145 167 2,000  Level FlightAware ADS-B
Wed 01:31:48 PM 43.9830 -79.5350 206° Southwest 144 166 2,000  Level FlightAware ADS-B
Wed 01:32:08 PM 43.9710 -79.5440 208° Southwest 145 167 2,000  Level FlightAware ADS-B
Wed 01:32:30 PM 43.9590 -79.5530 208° Southwest 149 171 2,000  Level FlightAware ADS-B
Wed 01:32:48 PM 43.9470 -79.5620 208° Southwest 151 174 2,000  Level FlightAware ADS-B
Wed 01:33:08 PM 43.9340 -79.5720 209° Southwest 152 175 2,000  Level FlightAware ADS-B
Wed 01:33:30 PM 43.9230 -79.5800 208° Southwest 150 173 2,000  Level FlightAware ADS-B
Wed 01:33:48 PM 43.9100 -79.5900 209° Southwest 149 171 2,000  Level FlightAware ADS-B
Wed 01:34:03 PM 43.9010 -79.5960 206° Southwest 149 171 2,000  Level FlightAware ADS-B
Wed 01:34:13 PM 43.8930 -79.5970 185° South 151 174 2,000  Level FlightAware ADS-B
Wed 01:34:23 PM 43.8870 -79.5950 166° South 153 176 2,000  Level FlightAware ADS-B
Wed 01:34:33 PM 43.8800 -79.5900 153° Southeast 154 177 2,000 -400 Level FlightAware ADS-B
Wed 01:34:53 PM 43.8680 -79.5800 149° Southeast 153 176 1,800 -514 Descending FlightAware ADS-B
Wed 01:35:08 PM 43.8590 -79.5720 147° Southeast 156 180 1,700 -162 Descending FlightAware ADS-B
Wed 01:35:30 PM 43.8470 -79.5610 147° Southeast 158 182 1,700  Level FlightAware ADS-B
Wed 01:35:48 PM 43.8350 -79.5490 144° Southeast 150 173 1,700  Level FlightAware ADS-B
Wed 01:36:18 PM 43.8190 -79.5350 148° Southeast 134 154 1,700  Level FlightAware ADS-B
Wed 01:36:38 PM 43.8080 -79.5250 147° Southeast 134 154 1,700  Level FlightAware ADS-B
Wed 01:36:53 PM 43.8000 -79.5180 148° Southeast 133 153 1,700 -171 Level FlightAware ADS-B
Wed 01:37:13 PM 43.7900 -79.5100 150° Southeast 124 143 1,600 -450 Descending FlightAware ADS-B
Wed 01:37:33 PM 43.7810 -79.5010 144° Southeast 123 142 1,400 -514 Descending FlightAware ADS-B
Wed 01:37:48 PM 43.7740 -79.4950 148° Southeast 121 139 1,300 -514 Descending FlightAware ADS-B
Wed 01:38:08 PM 43.7640 -79.4870 150° Southeast 118 136 1,100 -667 Descending FlightAware ADS-B
Wed 01:38:33 PM 43.7540 -79.4770 144° Southeast 119 137 800 -720 Descending FlightAware ADS-B
Wed 01:38:57 PM 43.7440 -79.4660 142° Southeast 111 128 -2,000 Descending FlightAware ADS-B
Wed 01:39:22 PM 43.7510 -79.4550 49° Northeast 111 128  Level FlightAware ADS-B
Wed 01:40:07 PM 43.7430 -79.4660 225° Southwest 111 128  Level FlightAware ADS-B
Wed 01:40:32 PM 43.7410 -79.4510 100° East 111 128  Level FlightAware ADS-B
Wed 01:40:48 PM 43.7400 -79.4680 265° West 111 128  Level FlightAware ADS-B
Wed 01:41:16 PM 43.7440 -79.4520 71° East 111 128  Level FlightAware ADS-B

Login

Don't have an account? Register now (free) for customized features, flight alerts, and more!